Terminal Aerodrome Forecast
Issued by NWS

Home | Current Version | Previous Version | Text Only | Print | Product List | Glossary On
Versions: 1 2 3 4 5 6 7 8 9 10 11 12 13 14 15 16 17 18 19 20 21 22 23 24 25 26 27 28 29
000
FTUS45 KPSR 202325
TAFIWA
TAF
KIWA 202325Z 2100/2124 27012KT P6SM VCSH FEW070 SCT090 BKN110
     FM210400 27006KT P6SM SCT080
     FM210800 24004KT P6SM SKC
     FM211200 14008KT P6SM SKC
     FM211700 27009KT P6SM FEW060
      AMD LTD TO CLD VIS AND WIND 2103/2113=

USA.gov is the U.S. government's official web portal to all federal, state and local government web resources and services.